sensor_id;sensor_type;location;lat;lon;timestamp;temperature;humidity
41720;DHT22;27405;53.316;-6.294;2023-02-15T00:01:55;10.70;85.20
41720;DHT22;27405;53.316;-6.294;2023-02-15T00:04:23;10.60;85.30
41720;DHT22;27405;53.316;-6.294;2023-02-15T00:06:50;10.60;85.50
41720;DHT22;27405;53.316;-6.294;2023-02-15T00:09:16;10.60;85.80
41720;DHT22;27405;53.316;-6.294;2023-02-15T00:11:42;10.60;86.10
41720;DHT22;27405;53.316;-6.294;2023-02-15T00:14:19;10.60;86.40
41720;DHT22;27405;53.316;-6.294;2023-02-15T00:16:45;10.60;86.40
41720;DHT22;27405;53.316;-6.294;2023-02-15T00:19:12;10.60;86.90
41720;DHT22;27405;53.316;-6.294;2023-02-15T00:21:39;10.60;86.90
41720;DHT22;27405;53.316;-6.294;2023-02-15T00:24:07;10.60;87.00
41720;DHT22;27405;53.316;-6.294;2023-02-15T00:26:33;10.60;87.10
41720;DHT22;27405;53.316;-6.294;2023-02-15T00:28:59;10.60;87.40
41720;DHT22;27405;53.316;-6.294;2023-02-15T00:31:29;10.50;87.50
41720;DHT22;27405;53.316;-6.294;2023-02-15T00:34:00;10.50;87.60
41720;DHT22;27405;53.316;-6.294;2023-02-15T00:36:26;10.60;87.50
41720;DHT22;27405;53.316;-6.294;2023-02-15T00:38:51;10.60;87.50
41720;DHT22;27405;53.316;-6.294;2023-02-15T00:41:17;10.60;87.70
41720;DHT22;27405;53.316;-6.294;2023-02-15T00:43:43;10.60;87.80
41720;DHT22;27405;53.316;-6.294;2023-02-15T00:46:09;10.70;88.00
41720;DHT22;27405;53.316;-6.294;2023-02-15T00:48:34;10.70;88.40
41720;DHT22;27405;53.316;-6.294;2023-02-15T00:51:00;10.70;88.90
41720;DHT22;27405;53.316;-6.294;2023-02-15T00:53:27;10.70;89.30
41720;DHT22;27405;53.316;-6.294;2023-02-15T00:55:53;10.70;89.60
41720;DHT22;27405;53.316;-6.294;2023-02-15T00:58:19;10.70;89.90
41720;DHT22;27405;53.316;-6.294;2023-02-15T01:00:45;10.70;90.10
41720;DHT22;27405;53.316;-6.294;2023-02-15T01:03:12;10.70;90.20
41720;DHT22;27405;53.316;-6.294;2023-02-15T01:05:38;10.70;90.40
41720;DHT22;27405;53.316;-6.294;2023-02-15T01:08:04;10.70;90.50
41720;DHT22;27405;53.316;-6.294;2023-02-15T01:10:30;10.70;90.60
41720;DHT22;27405;53.316;-6.294;2023-02-15T01:12:56;10.70;90.70
41720;DHT22;27405;53.316;-6.294;2023-02-15T01:15:22;10.70;90.90
41720;DHT22;27405;53.316;-6.294;2023-02-15T01:17:48;10.70;91.00
41720;DHT22;27405;53.316;-6.294;2023-02-15T01:20:23;10.70;91.20
41720;DHT22;27405;53.316;-6.294;2023-02-15T01:22:50;10.70;91.30
41720;DHT22;27405;53.316;-6.294;2023-02-15T01:25:17;10.70;91.50
41720;DHT22;27405;53.316;-6.294;2023-02-15T01:27:43;10.70;91.60
41720;DHT22;27405;53.316;-6.294;2023-02-15T01:30:10;10.70;91.80
41720;DHT22;27405;53.316;-6.294;2023-02-15T01:32:36;10.60;92.00
41720;DHT22;27405;53.316;-6.294;2023-02-15T01:35:02;10.60;92.30
41720;DHT22;27405;53.316;-6.294;2023-02-15T01:37:30;10.60;92.50
41720;DHT22;27405;53.316;-6.294;2023-02-15T01:39:56;10.60;92.80
41720;DHT22;27405;53.316;-6.294;2023-02-15T01:42:23;10.60;93.00
41720;DHT22;27405;53.316;-6.294;2023-02-15T01:44:54;10.50;93.30
41720;DHT22;27405;53.316;-6.294;2023-02-15T01:52:34;10.40;93.80
41720;DHT22;27405;53.316;-6.294;2023-02-15T01:55:00;10.40;93.90
41720;DHT22;27405;53.316;-6.294;2023-02-15T01:57:28;10.40;93.90
41720;DHT22;27405;53.316;-6.294;2023-02-15T01:59:56;10.40;93.90
41720;DHT22;27405;53.316;-6.294;2023-02-15T02:02:23;10.40;94.00
41720;DHT22;27405;53.316;-6.294;2023-02-15T02:04:56;10.40;94.20
41720;DHT22;27405;53.316;-6.294;2023-02-15T02:07:28;10.40;94.30
41720;DHT22;27405;53.316;-6.294;2023-02-15T02:09:54;10.40;94.40
41720;DHT22;27405;53.316;-6.294;2023-02-15T02:12:21;10.40;94.60
41720;DHT22;27405;53.316;-6.294;2023-02-15T02:14:48;10.40;94.80
41720;DHT22;27405;53.316;-6.294;2023-02-15T02:25:27;10.30;95.80
41720;DHT22;27405;53.316;-6.294;2023-02-15T02:31:14;10.30;96.50
41720;DHT22;27405;53.316;-6.294;2023-02-15T02:36:49;10.30;97.00
41720;DHT22;27405;53.316;-6.294;2023-02-15T02:39:32;10.30;97.20
41720;DHT22;27405;53.316;-6.294;2023-02-15T02:42:16;10.30;97.40
41720;DHT22;27405;53.316;-6.294;2023-02-15T02:44:54;10.20;97.60
41720;DHT22;27405;53.316;-6.294;2023-02-15T02:47:40;10.20;97.80
41720;DHT22;27405;53.316;-6.294;2023-02-15T02:50:15;10.20;98.00
41720;DHT22;27405;53.316;-6.294;2023-02-15T02:52:51;10.20;98.20
41720;DHT22;27405;53.316;-6.294;2023-02-15T03:00:40;10.30;98.70
41720;DHT22;27405;53.316;-6.294;2023-02-15T03:03:30;10.30;98.80
41720;DHT22;27405;53.316;-6.294;2023-02-15T03:06:05;10.40;99.00
41720;DHT22;27405;53.316;-6.294;2023-02-15T03:08:47;10.40;99.10
41720;DHT22;27405;53.316;-6.294;2023-02-15T03:11:14;10.40;99.20
41720;DHT22;27405;53.316;-6.294;2023-02-15T03:13:40;10.40;99.30
41720;DHT22;27405;53.316;-6.294;2023-02-15T03:16:08;10.40;99.40
41720;DHT22;27405;53.316;-6.294;2023-02-15T03:19:03;10.40;99.50
41720;DHT22;27405;53.316;-6.294;2023-02-15T03:24:12;10.50;99.70
41720;DHT22;27405;53.316;-6.294;2023-02-15T03:26:43;10.50;99.80
41720;DHT22;27405;53.316;-6.294;2023-02-15T03:29:11;10.50;99.80
41720;DHT22;27405;53.316;-6.294;2023-02-15T03:31:40;10.60;99.90
41720;DHT22;27405;53.316;-6.294;2023-02-15T03:34:11;10.60;99.90
41720;DHT22;27405;53.316;-6.294;2023-02-15T03:36:44;10.60;99.90
41720;DHT22;27405;53.316;-6.294;2023-02-15T03:39:20;10.70;99.90
41720;DHT22;27405;53.316;-6.294;2023-02-15T03:44:26;10.80;99.90
41720;DHT22;27405;53.316;-6.294;2023-02-15T03:46:59;10.80;99.90
41720;DHT22;27405;53.316;-6.294;2023-02-15T03:49:49;10.90;99.90
41720;DHT22;27405;53.316;-6.294;2023-02-15T03:52:16;10.90;99.90
41720;DHT22;27405;53.316;-6.294;2023-02-15T03:54:43;10.90;99.90
41720;DHT22;27405;53.316;-6.294;2023-02-15T03:57:22;10.90;99.90
41720;DHT22;27405;53.316;-6.294;2023-02-15T04:00:27;10.90;99.90
41720;DHT22;27405;53.316;-6.294;2023-02-15T04:05:41;10.80;99.90
41720;DHT22;27405;53.316;-6.294;2023-02-15T04:08:07;10.80;99.90
41720;DHT22;27405;53.316;-6.294;2023-02-15T04:10:33;10.80;99.90
41720;DHT22;27405;53.316;-6.294;2023-02-15T04:13:18;10.80;99.90
41720;DHT22;27405;53.316;-6.294;2023-02-15T04:15:44;10.80;99.90
41720;DHT22;27405;53.316;-6.294;2023-02-15T04:18:29;10.80;99.90
41720;DHT22;27405;53.316;-6.294;2023-02-15T04:21:13;10.80;99.90
41720;DHT22;27405;53.316;-6.294;2023-02-15T04:23:57;10.80;99.90
41720;DHT22;27405;53.316;-6.294;2023-02-15T04:26:41;10.90;99.90
41720;DHT22;27405;53.316;-6.294;2023-02-15T04:29:07;10.90;99.90
41720;DHT22;27405;53.316;-6.294;2023-02-15T04:31:32;10.90;99.90
41720;DHT22;27405;53.316;-6.294;2023-02-15T04:33:58;10.90;99.90
41720;DHT22;27405;53.316;-6.294;2023-02-15T04:36:24;11.00;99.90
41720;DHT22;27405;53.316;-6.294;2023-02-15T04:38:49;10.90;99.90
41720;DHT22;27405;53.316;-6.294;2023-02-15T04:41:15;11.00;99.90
41720;DHT22;27405;53.316;-6.294;2023-02-15T04:43:41;11.00;99.90
41720;DHT22;27405;53.316;-6.294;2023-02-15T04:46:06;11.00;99.90
41720;DHT22;27405;53.316;-6.294;2023-02-15T04:48:32;11.00;99.90
41720;DHT22;27405;53.316;-6.294;2023-02-15T04:50:58;11.10;99.90
41720;DHT22;27405;53.316;-6.294;2023-02-15T04:53:23;11.10;99.90
41720;DHT22;27405;53.316;-6.294;2023-02-15T04:55:49;11.10;99.90
41720;DHT22;27405;53.316;-6.294;2023-02-15T04:58:15;11.10;99.90
41720;DHT22;27405;53.316;-6.294;2023-02-15T05:00:40;11.10;99.90
41720;DHT22;27405;53.316;-6.294;2023-02-15T05:03:06;11.20;99.90
41720;DHT22;27405;53.316;-6.294;2023-02-15T05:05:32;11.20;99.90
41720;DHT22;27405;53.316;-6.294;2023-02-15T05:07:57;11.10;99.90
41720;DHT22;27405;53.316;-6.294;2023-02-15T05:10:23;11.20;99.90
41720;DHT22;27405;53.316;-6.294;2023-02-15T05:12:49;11.20;99.90
41720;DHT22;27405;53.316;-6.294;2023-02-15T05:15:14;11.30;99.90
41720;DHT22;27405;53.316;-6.294;2023-02-15T05:17:40;11.30;99.90
41720;DHT22;27405;53.316;-6.294;2023-02-15T05:20:06;11.00;99.90
41720;DHT22;27405;53.316;-6.294;2023-02-15T05:22:32;10.40;99.90
41720;DHT22;27405;53.316;-6.294;2023-02-15T05:24:58;9.80;99.90
41720;DHT22;27405;53.316;-6.294;2023-02-15T05:27:42;9.50;99.90
41720;DHT22;27405;53.316;-6.294;2023-02-15T05:30:26;9.20;99.90
41720;DHT22;27405;53.316;-6.294;2023-02-15T05:32:52;8.80;99.90
41720;DHT22;27405;53.316;-6.294;2023-02-15T05:35:18;8.60;99.90
41720;DHT22;27405;53.316;-6.294;2023-02-15T05:37:43;8.40;99.90
41720;DHT22;27405;53.316;-6.294;2023-02-15T05:40:09;8.30;99.90
41720;DHT22;27405;53.316;-6.294;2023-02-15T05:42:35;8.20;99.90
41720;DHT22;27405;53.316;-6.294;2023-02-15T05:45:01;8.10;99.90
41720;DHT22;27405;53.316;-6.294;2023-02-15T05:47:26;8.00;99.90
41720;DHT22;27405;53.316;-6.294;2023-02-15T05:49:52;8.10;99.90
41720;DHT22;27405;53.316;-6.294;2023-02-15T05:52:18;8.00;99.90
41720;DHT22;27405;53.316;-6.294;2023-02-15T05:54:43;8.00;99.90
41720;DHT22;27405;53.316;-6.294;2023-02-15T05:57:09;8.00;99.90
41720;DHT22;27405;53.316;-6.294;2023-02-15T05:59:35;7.90;99.90
41720;DHT22;27405;53.316;-6.294;2023-02-15T06:02:00;7.90;99.90
41720;DHT22;27405;53.316;-6.294;2023-02-15T06:04:26;7.80;99.90
41720;DHT22;27405;53.316;-6.294;2023-02-15T06:06:52;7.80;99.90
41720;DHT22;27405;53.316;-6.294;2023-02-15T06:09:17;7.80;99.90
41720;DHT22;27405;53.316;-6.294;2023-02-15T06:11:45;7.80;99.90
41720;DHT22;27405;53.316;-6.294;2023-02-15T06:14:11;7.80;99.90
41720;DHT22;27405;53.316;-6.294;2023-02-15T06:16:36;7.80;99.90
41720;DHT22;27405;53.316;-6.294;2023-02-15T06:19:03;7.80;99.90
41720;DHT22;27405;53.316;-6.294;2023-02-15T06:21:29;7.80;99.90
41720;DHT22;27405;53.316;-6.294;2023-02-15T06:23:55;7.80;99.90
41720;DHT22;27405;53.316;-6.294;2023-02-15T06:26:21;7.80;99.90
41720;DHT22;27405;53.316;-6.294;2023-02-15T06:28:47;7.80;99.90
41720;DHT22;27405;53.316;-6.294;2023-02-15T06:31:12;7.80;99.90
41720;DHT22;27405;53.316;-6.294;2023-02-15T06:33:38;7.80;99.90
41720;DHT22;27405;53.316;-6.294;2023-02-15T06:36:04;7.80;99.90
41720;DHT22;27405;53.316;-6.294;2023-02-15T06:38:30;7.80;99.90
41720;DHT22;27405;53.316;-6.294;2023-02-15T06:40:56;7.70;99.90
41720;DHT22;27405;53.316;-6.294;2023-02-15T06:43:22;7.70;99.90
41720;DHT22;27405;53.316;-6.294;2023-02-15T06:45:48;7.70;99.90
41720;DHT22;27405;53.316;-6.294;2023-02-15T06:48:14;7.70;99.90
41720;DHT22;27405;53.316;-6.294;2023-02-15T06:50:39;7.70;99.90
41720;DHT22;27405;53.316;-6.294;2023-02-15T06:53:05;7.70;99.90
41720;DHT22;27405;53.316;-6.294;2023-02-15T06:55:31;7.70;99.90
41720;DHT22;27405;53.316;-6.294;2023-02-15T06:57:56;7.70;99.90
41720;DHT22;27405;53.316;-6.294;2023-02-15T07:00:22;7.70;99.90
41720;DHT22;27405;53.316;-6.294;2023-02-15T07:02:56;7.60;99.90
41720;DHT22;27405;53.316;-6.294;2023-02-15T07:05:24;7.60;99.90
41720;DHT22;27405;53.316;-6.294;2023-02-15T07:07:50;7.60;99.90
41720;DHT22;27405;53.316;-6.294;2023-02-15T07:10:16;7.70;99.90
41720;DHT22;27405;53.316;-6.294;2023-02-15T07:12:41;7.70;99.90
41720;DHT22;27405;53.316;-6.294;2023-02-15T07:15:16;7.70;99.90
41720;DHT22;27405;53.316;-6.294;2023-02-15T07:17:42;7.60;99.90
41720;DHT22;27405;53.316;-6.294;2023-02-15T07:20:12;7.60;99.90
41720;DHT22;27405;53.316;-6.294;2023-02-15T07:22:38;7.60;99.90
41720;DHT22;27405;53.316;-6.294;2023-02-15T07:25:05;7.60;99.90
41720;DHT22;27405;53.316;-6.294;2023-02-15T07:27:32;7.60;99.90
41720;DHT22;27405;53.316;-6.294;2023-02-15T07:29:59;7.60;99.90
41720;DHT22;27405;53.316;-6.294;2023-02-15T07:32:28;7.60;99.90
41720;DHT22;27405;53.316;-6.294;2023-02-15T07:34:54;7.60;99.90
41720;DHT22;27405;53.316;-6.294;2023-02-15T07:37:20;7.60;99.90
41720;DHT22;27405;53.316;-6.294;2023-02-15T07:39:46;7.60;99.90
41720;DHT22;27405;53.316;-6.294;2023-02-15T07:42:11;7.60;99.90
41720;DHT22;27405;53.316;-6.294;2023-02-15T07:44:37;7.60;99.90
41720;DHT22;27405;53.316;-6.294;2023-02-15T07:47:03;7.60;99.90
41720;DHT22;27405;53.316;-6.294;2023-02-15T07:49:29;7.70;99.90
41720;DHT22;27405;53.316;-6.294;2023-02-15T07:51:54;7.70;99.90
41720;DHT22;27405;53.316;-6.294;2023-02-15T07:54:20;7.70;99.90
41720;DHT22;27405;53.316;-6.294;2023-02-15T07:56:46;7.70;99.90
41720;DHT22;27405;53.316;-6.294;2023-02-15T07:59:11;7.70;99.90
41720;DHT22;27405;53.316;-6.294;2023-02-15T08:01:38;7.70;99.90
41720;DHT22;27405;53.316;-6.294;2023-02-15T08:04:06;7.70;99.90
41720;DHT22;27405;53.316;-6.294;2023-02-15T08:06:33;7.60;99.90
41720;DHT22;27405;53.316;-6.294;2023-02-15T08:09:02;7.60;99.90
41720;DHT22;27405;53.316;-6.294;2023-02-15T08:11:29;7.60;99.90
41720;DHT22;27405;53.316;-6.294;2023-02-15T08:19:24;7.70;99.90
41720;DHT22;27405;53.316;-6.294;2023-02-15T08:22:02;7.70;99.90
41720;DHT22;27405;53.316;-6.294;2023-02-15T08:24:30;7.70;99.90
41720;DHT22;27405;53.316;-6.294;2023-02-15T08:26:56;7.70;99.90
41720;DHT22;27405;53.316;-6.294;2023-02-15T08:29:24;7.80;99.90
41720;DHT22;27405;53.316;-6.294;2023-02-15T08:31:54;7.80;99.90
41720;DHT22;27405;53.316;-6.294;2023-02-15T08:34:21;7.80;99.90
41720;DHT22;27405;53.316;-6.294;2023-02-15T08:36:47;7.80;99.90
41720;DHT22;27405;53.316;-6.294;2023-02-15T08:39:14;7.80;99.90
41720;DHT22;27405;53.316;-6.294;2023-02-15T08:41:43;7.80;99.90
41720;DHT22;27405;53.316;-6.294;2023-02-15T08:44:09;7.90;99.90
41720;DHT22;27405;53.316;-6.294;2023-02-15T08:46:41;7.90;99.90
41720;DHT22;27405;53.316;-6.294;2023-02-15T08:49:08;8.00;99.90
41720;DHT22;27405;53.316;-6.294;2023-02-15T08:51:36;8.00;99.90
41720;DHT22;27405;53.316;-6.294;2023-02-15T08:54:07;8.00;99.90
41720;DHT22;27405;53.316;-6.294;2023-02-15T08:56:40;8.00;99.90
41720;DHT22;27405;53.316;-6.294;2023-02-15T08:59:12;8.00;99.90
41720;DHT22;27405;53.316;-6.294;2023-02-15T09:01:38;8.00;99.90
41720;DHT22;27405;53.316;-6.294;2023-02-15T09:04:05;8.00;99.90
41720;DHT22;27405;53.316;-6.294;2023-02-15T09:06:34;8.10;99.90
41720;DHT22;27405;53.316;-6.294;2023-02-15T09:09:00;8.00;99.90
41720;DHT22;27405;53.316;-6.294;2023-02-15T09:11:30;8.00;99.90
41720;DHT22;27405;53.316;-6.294;2023-02-15T09:13:58;8.00;99.90
41720;DHT22;27405;53.316;-6.294;2023-02-15T09:16:27;8.00;99.90
41720;DHT22;27405;53.316;-6.294;2023-02-15T09:18:54;8.00;99.90
41720;DHT22;27405;53.316;-6.294;2023-02-15T09:21:24;8.00;99.90
41720;DHT22;27405;53.316;-6.294;2023-02-15T09:23:52;7.90;99.90
41720;DHT22;27405;53.316;-6.294;2023-02-15T09:26:21;8.00;99.90
41720;DHT22;27405;53.316;-6.294;2023-02-15T09:28:51;7.90;99.90
41720;DHT22;27405;53.316;-6.294;2023-02-15T09:31:19;8.00;99.90
41720;DHT22;27405;53.316;-6.294;2023-02-15T09:33:47;7.90;99.90
41720;DHT22;27405;53.316;-6.294;2023-02-15T09:36:24;7.90;99.90
41720;DHT22;27405;53.316;-6.294;2023-02-15T09:39:25;8.00;99.90
41720;DHT22;27405;53.316;-6.294;2023-02-15T09:55:54;8.40;99.90
41720;DHT22;27405;53.316;-6.294;2023-02-15T09:58:42;8.40;99.90
41720;DHT22;27405;53.316;-6.294;2023-02-15T10:09:32;8.70;99.90
41720;DHT22;27405;53.316;-6.294;2023-02-15T10:25:54;9.00;99.90
41720;DHT22;27405;53.316;-6.294;2023-02-15T10:28:35;9.10;99.90
41720;DHT22;27405;53.316;-6.294;2023-02-15T10:31:22;9.20;99.90
41720;DHT22;27405;53.316;-6.294;2023-02-15T10:34:35;9.30;99.90
41720;DHT22;27405;53.316;-6.294;2023-02-15T10:37:19;9.50;99.90
41720;DHT22;27405;53.316;-6.294;2023-02-15T10:45:07;9.70;99.90
41720;DHT22;27405;53.316;-6.294;2023-02-15T10:47:46;9.70;99.90
41720;DHT22;27405;53.316;-6.294;2023-02-15T10:58:31;10.00;99.90
41720;DHT22;27405;53.316;-6.294;2023-02-15T11:06:27;10.20;99.90
41720;DHT22;27405;53.316;-6.294;2023-02-15T11:08:57;10.20;99.90
41720;DHT22;27405;53.316;-6.294;2023-02-15T11:11:34;10.20;99.90
41720;DHT22;27405;53.316;-6.294;2023-02-15T11:14:05;10.20;99.90
41720;DHT22;27405;53.316;-6.294;2023-02-15T11:16:37;10.20;99.90
41720;DHT22;27405;53.316;-6.294;2023-02-15T11:19:15;10.20;99.90
41720;DHT22;27405;53.316;-6.294;2023-02-15T11:21:47;10.20;99.90
41720;DHT22;27405;53.316;-6.294;2023-02-15T11:24:17;10.20;99.90
41720;DHT22;27405;53.316;-6.294;2023-02-15T11:27:03;10.20;99.90
41720;DHT22;27405;53.316;-6.294;2023-02-15T11:29:57;10.30;99.90
41720;DHT22;27405;53.316;-6.294;2023-02-15T11:32:43;10.30;99.90
41720;DHT22;27405;53.316;-6.294;2023-02-15T11:40:32;10.20;99.90
41720;DHT22;27405;53.316;-6.294;2023-02-15T11:43:04;10.20;99.90
41720;DHT22;27405;53.316;-6.294;2023-02-15T11:45:33;10.20;99.90
41720;DHT22;27405;53.316;-6.294;2023-02-15T11:48:00;10.20;99.90
41720;DHT22;27405;53.316;-6.294;2023-02-15T11:50:28;10.20;99.90
41720;DHT22;27405;53.316;-6.294;2023-02-15T11:53:09;10.20;99.90
41720;DHT22;27405;53.316;-6.294;2023-02-15T11:55:37;10.30;99.90
41720;DHT22;27405;53.316;-6.294;2023-02-15T11:58:36;10.30;99.90
41720;DHT22;27405;53.316;-6.294;2023-02-15T12:01:24;10.30;99.90
41720;DHT22;27405;53.316;-6.294;2023-02-15T12:03:52;10.40;99.90
41720;DHT22;27405;53.316;-6.294;2023-02-15T12:06:34;10.40;99.90
41720;DHT22;27405;53.316;-6.294;2023-02-15T12:12:27;10.50;99.90
41720;DHT22;27405;53.316;-6.294;2023-02-15T12:14:55;10.50;99.90
41720;DHT22;27405;53.316;-6.294;2023-02-15T12:17:27;10.60;99.90
41720;DHT22;27405;53.316;-6.294;2023-02-15T12:19:57;10.50;99.90
41720;DHT22;27405;53.316;-6.294;2023-02-15T12:22:26;10.50;99.90
41720;DHT22;27405;53.316;-6.294;2023-02-15T12:24:55;10.60;99.90
41720;DHT22;27405;53.316;-6.294;2023-02-15T12:27:28;10.50;99.90
41720;DHT22;27405;53.316;-6.294;2023-02-15T12:30:06;10.60;99.90
41720;DHT22;27405;53.316;-6.294;2023-02-15T12:32:56;10.60;99.90
41720;DHT22;27405;53.316;-6.294;2023-02-15T12:35:34;10.60;99.90
41720;DHT22;27405;53.316;-6.294;2023-02-15T12:38:26;10.70;99.90
41720;DHT22;27405;53.316;-6.294;2023-02-15T12:41:00;10.70;99.90
41720;DHT22;27405;53.316;-6.294;2023-02-15T12:43:34;10.70;99.90
41720;DHT22;27405;53.316;-6.294;2023-02-15T12:46:23;10.70;99.90
41720;DHT22;27405;53.316;-6.294;2023-02-15T12:49:19;10.70;99.90
41720;DHT22;27405;53.316;-6.294;2023-02-15T12:54:42;10.70;99.90
41720;DHT22;27405;53.316;-6.294;2023-02-15T13:04:55;10.60;99.90
41720;DHT22;27405;53.316;-6.294;2023-02-15T13:07:22;10.60;99.90
41720;DHT22;27405;53.316;-6.294;2023-02-15T13:09:49;10.50;99.90
41720;DHT22;27405;53.316;-6.294;2023-02-15T13:12:23;10.60;99.90
41720;DHT22;27405;53.316;-6.294;2023-02-15T13:14:53;10.60;99.90
41720;DHT22;27405;53.316;-6.294;2023-02-15T13:17:40;10.60;99.90
41720;DHT22;27405;53.316;-6.294;2023-02-15T13:20:20;10.60;99.90
41720;DHT22;27405;53.316;-6.294;2023-02-15T13:22:50;10.60;99.90
41720;DHT22;27405;53.316;-6.294;2023-02-15T13:25:18;10.60;99.90
41720;DHT22;27405;53.316;-6.294;2023-02-15T13:27:46;10.70;99.90
41720;DHT22;27405;53.316;-6.294;2023-02-15T13:30:31;10.80;99.90
41720;DHT22;27405;53.316;-6.294;2023-02-15T13:33:04;10.90;99.90
41720;DHT22;27405;53.316;-6.294;2023-02-15T13:35:56;11.00;99.90
41720;DHT22;27405;53.316;-6.294;2023-02-15T13:38:46;11.00;99.90
41720;DHT22;27405;53.316;-6.294;2023-02-15T13:46:33;11.30;99.90
41720;DHT22;27405;53.316;-6.294;2023-02-15T13:49:17;11.30;99.90
41720;DHT22;27405;53.316;-6.294;2023-02-15T13:52:20;11.30;99.90
41720;DHT22;27405;53.316;-6.294;2023-02-15T13:57:28;11.40;99.90
41720;DHT22;27405;53.316;-6.294;2023-02-15T14:04:15;11.40;99.90
41720;DHT22;27405;53.316;-6.294;2023-02-15T14:20:14;11.60;99.90
41720;DHT22;27405;53.316;-6.294;2023-02-15T14:22:45;11.60;99.90
41720;DHT22;27405;53.316;-6.294;2023-02-15T14:25:45;11.60;99.90
41720;DHT22;27405;53.316;-6.294;2023-02-15T14:30:53;11.60;99.90
41720;DHT22;27405;53.316;-6.294;2023-02-15T14:35:51;11.60;99.90
41720;DHT22;27405;53.316;-6.294;2023-02-15T14:41:43;11.60;99.90
41720;DHT22;27405;53.316;-6.294;2023-02-15T14:44:31;11.60;99.90
41720;DHT22;27405;53.316;-6.294;2023-02-15T14:47:01;11.70;99.90
41720;DHT22;27405;53.316;-6.294;2023-02-15T14:49:33;11.60;99.90
41720;DHT22;27405;53.316;-6.294;2023-02-15T14:52:04;11.70;99.90
41720;DHT22;27405;53.316;-6.294;2023-02-15T15:02:18;11.70;99.90
41720;DHT22;27405;53.316;-6.294;2023-02-15T15:05:08;11.60;99.90
41720;DHT22;27405;53.316;-6.294;2023-02-15T15:12:46;11.50;99.90
41720;DHT22;27405;53.316;-6.294;2023-02-15T15:15:29;11.50;99.90
41720;DHT22;27405;53.316;-6.294;2023-02-15T15:18:00;11.50;99.90
41720;DHT22;27405;53.316;-6.294;2023-02-15T15:25:51;11.30;99.90
41720;DHT22;27405;53.316;-6.294;2023-02-15T15:37:26;11.30;99.90
41720;DHT22;27405;53.316;-6.294;2023-02-15T15:48:45;11.20;99.90
41720;DHT22;27405;53.316;-6.294;2023-02-15T15:51:34;11.20;99.90
41720;DHT22;27405;53.316;-6.294;2023-02-15T15:54:04;11.10;99.90
41720;DHT22;27405;53.316;-6.294;2023-02-15T15:56:35;11.20;99.90
41720;DHT22;27405;53.316;-6.294;2023-02-15T15:59:16;11.10;99.90
41720;DHT22;27405;53.316;-6.294;2023-02-15T16:01:44;11.20;99.90
41720;DHT22;27405;53.316;-6.294;2023-02-15T16:04:30;11.20;99.90
41720;DHT22;27405;53.316;-6.294;2023-02-15T16:07:13;11.30;99.90
41720;DHT22;27405;53.316;-6.294;2023-02-15T16:09:39;11.30;99.90
41720;DHT22;27405;53.316;-6.294;2023-02-15T16:12:13;11.30;99.90
41720;DHT22;27405;53.316;-6.294;2023-02-15T16:14:40;11.30;99.90
41720;DHT22;27405;53.316;-6.294;2023-02-15T16:17:14;11.30;99.90
41720;DHT22;27405;53.316;-6.294;2023-02-15T16:19:43;11.30;99.90
41720;DHT22;27405;53.316;-6.294;2023-02-15T16:22:15;11.30;99.90
41720;DHT22;27405;53.316;-6.294;2023-02-15T16:27:40;11.20;99.90
41720;DHT22;27405;53.316;-6.294;2023-02-15T16:30:27;11.20;99.90
41720;DHT22;27405;53.316;-6.294;2023-02-15T16:33:04;11.10;99.90
41720;DHT22;27405;53.316;-6.294;2023-02-15T16:35:31;11.10;99.90
41720;DHT22;27405;53.316;-6.294;2023-02-15T16:37:57;11.00;99.90
41720;DHT22;27405;53.316;-6.294;2023-02-15T16:40:31;11.00;99.90
41720;DHT22;27405;53.316;-6.294;2023-02-15T16:43:01;11.00;99.90
41720;DHT22;27405;53.316;-6.294;2023-02-15T16:45:27;10.90;99.90
41720;DHT22;27405;53.316;-6.294;2023-02-15T16:47:59;10.90;99.90
41720;DHT22;27405;53.316;-6.294;2023-02-15T16:50:34;10.90;99.90
41720;DHT22;27405;53.316;-6.294;2023-02-15T16:53:01;10.80;99.90
41720;DHT22;27405;53.316;-6.294;2023-02-15T16:55:50;10.80;99.90
41720;DHT22;27405;53.316;-6.294;2023-02-15T16:58:17;10.80;99.90
41720;DHT22;27405;53.316;-6.294;2023-02-15T17:00:44;10.80;99.90
41720;DHT22;27405;53.316;-6.294;2023-02-15T17:13:37;10.70;99.90
41720;DHT22;27405;53.316;-6.294;2023-02-15T17:18:31;10.60;99.90
41720;DHT22;27405;53.316;-6.294;2023-02-15T17:21:23;10.60;99.90
41720;DHT22;27405;53.316;-6.294;2023-02-15T17:23:48;10.60;99.90
41720;DHT22;27405;53.316;-6.294;2023-02-15T17:26:29;10.50;99.90
41720;DHT22;27405;53.316;-6.294;2023-02-15T17:29:01;10.50;99.90
41720;DHT22;27405;53.316;-6.294;2023-02-15T17:31:31;10.50;99.90
41720;DHT22;27405;53.316;-6.294;2023-02-15T17:33:58;10.50;99.90
41720;DHT22;27405;53.316;-6.294;2023-02-15T17:36:26;10.40;99.90
41720;DHT22;27405;53.316;-6.294;2023-02-15T17:41:28;10.40;99.90
41720;DHT22;27405;53.316;-6.294;2023-02-15T17:43:54;10.40;99.90
41720;DHT22;27405;53.316;-6.294;2023-02-15T17:46:20;10.40;99.90
41720;DHT22;27405;53.316;-6.294;2023-02-15T17:48:51;10.40;99.90
41720;DHT22;27405;53.316;-6.294;2023-02-15T17:51:18;10.40;99.90
41720;DHT22;27405;53.316;-6.294;2023-02-15T17:53:45;10.40;99.90
41720;DHT22;27405;53.316;-6.294;2023-02-15T17:56:35;10.40;99.90
41720;DHT22;27405;53.316;-6.294;2023-02-15T17:59:01;10.40;99.90
41720;DHT22;27405;53.316;-6.294;2023-02-15T18:01:33;10.40;99.90
41720;DHT22;27405;53.316;-6.294;2023-02-15T18:04:19;10.50;99.90
41720;DHT22;27405;53.316;-6.294;2023-02-15T18:07:04;10.50;99.90
41720;DHT22;27405;53.316;-6.294;2023-02-15T18:09:48;10.50;99.90
41720;DHT22;27405;53.316;-6.294;2023-02-15T18:12:34;10.50;99.90
41720;DHT22;27405;53.316;-6.294;2023-02-15T18:15:05;10.50;99.90
41720;DHT22;27405;53.316;-6.294;2023-02-15T18:17:42;10.50;99.90
41720;DHT22;27405;53.316;-6.294;2023-02-15T18:20:21;10.50;99.90
41720;DHT22;27405;53.316;-6.294;2023-02-15T18:22:49;10.50;99.90
41720;DHT22;27405;53.316;-6.294;2023-02-15T18:25:18;10.40;99.90
41720;DHT22;27405;53.316;-6.294;2023-02-15T18:27:44;10.40;99.90
41720;DHT22;27405;53.316;-6.294;2023-02-15T18:30:18;10.40;99.90
41720;DHT22;27405;53.316;-6.294;2023-02-15T18:32:45;10.40;99.90
41720;DHT22;27405;53.316;-6.294;2023-02-15T18:35:16;10.40;99.90
41720;DHT22;27405;53.316;-6.294;2023-02-15T18:37:43;10.30;99.90
41720;DHT22;27405;53.316;-6.294;2023-02-15T18:40:18;10.30;99.90
41720;DHT22;27405;53.316;-6.294;2023-02-15T18:42:44;10.30;99.90
41720;DHT22;27405;53.316;-6.294;2023-02-15T18:45:32;10.30;99.90
41720;DHT22;27405;53.316;-6.294;2023-02-15T18:47:59;10.30;99.90
41720;DHT22;27405;53.316;-6.294;2023-02-15T18:50:28;10.30;99.90
41720;DHT22;27405;53.316;-6.294;2023-02-15T18:52:55;10.30;99.90
41720;DHT22;27405;53.316;-6.294;2023-02-15T18:55:26;10.30;99.90
41720;DHT22;27405;53.316;-6.294;2023-02-15T18:57:57;10.30;99.90
41720;DHT22;27405;53.316;-6.294;2023-02-15T19:00:29;10.30;99.90
41720;DHT22;27405;53.316;-6.294;2023-02-15T19:02:57;10.30;99.90
41720;DHT22;27405;53.316;-6.294;2023-02-15T19:05:24;10.30;99.90
41720;DHT22;27405;53.316;-6.294;2023-02-15T19:07:52;10.30;99.90